SBKG/CPV METAR and TAF weather

Enter ICAO airport designator
Station Type Date Time Source
SBKG METAR 2022/08/12 15:00 UTC NOAA

SBKG 121500Z 11009KT 9999 BKN025 27/20 Q1019


Station Type Date Time Source
SBKG Decoded METAR 2022/08/12 15:00 UTC NOAA

Campina Grande, Brazil (SBKG) 07-13S 035-53W
Aug 12, 2022 - 11:00 AM EDT / 2022.08.12 1500 UTC
Wind: from the ESE (110 degrees) at 10 MPH (9 KT):0
Visibility: greater than 7 mile(s):0
Sky conditions: mostly cloudy
Temperature: 80 F (27 C)
Dew Point: 68 F (20 C)
Relative Humidity: 65%
Pressure (altimeter): 30.09 in. Hg (1019 hPa)
ob: SBKG 121500Z 11009KT 9999 BKN025 27/20 Q1019
cycle: 15

Station Type Date Time Source
SBKG TAF 2022/08/11 12:27 UTC NOAA

TAF SBKG 110900Z 1112/1124 11010KT 9999 SCT020 TX27/1116Z TN20/1124Z
RMK PHD

Example: see airport list